createdAt,value
2023-04-09T00:01:10.511Z,95.88
2023-04-09T00:03:39.527Z,96.26
2023-04-09T00:06:06.966Z,96.82
2023-04-09T00:08:34.129Z,96.37
2023-04-09T00:11:01.129Z,96.80
2023-04-09T00:13:37.902Z,96.98
2023-04-09T00:16:07.987Z,96.99
2023-04-09T00:18:34.803Z,96.82
2023-04-09T00:21:01.611Z,97.63
2023-04-09T00:23:28.902Z,97.82
2023-04-09T00:25:56.291Z,97.58
2023-04-09T00:28:23.789Z,97.71
2023-04-09T00:30:50.918Z,97.98
2023-04-09T00:33:18.191Z,98.48
2023-04-09T00:35:45.764Z,98.35
2023-04-09T00:38:12.642Z,98.16
2023-04-09T00:40:39.885Z,97.92
2023-04-09T00:43:07.385Z,98.30
2023-04-09T00:45:34.633Z,98.66
2023-04-09T00:48:02.316Z,98.31
2023-04-09T00:50:29.597Z,98.01
2023-04-09T00:52:57.749Z,98.33
2023-04-09T00:55:25.666Z,98.28
2023-04-09T00:57:52.867Z,98.21
2023-04-09T01:00:20.042Z,97.99
2023-04-09T01:02:49.050Z,98.71
2023-04-09T01:05:16.670Z,98.70
2023-04-09T01:08:11.819Z,98.21
2023-04-09T01:10:49.477Z,98.14
2023-04-09T01:13:28.586Z,98.78
2023-04-09T01:15:59.667Z,98.23
2023-04-09T01:18:40.832Z,98.88
2023-04-09T01:21:18.174Z,99.52
2023-04-09T01:24:26.060Z,99.45
2023-04-09T01:27:05.415Z,99.69
2023-04-09T01:29:41.908Z,99.98
2023-04-09T01:32:10.517Z,100.00
2023-04-09T01:34:38.999Z,100.00
2023-04-09T01:37:07.851Z,100.00
2023-04-09T01:39:37.631Z,100.00
2023-04-09T01:42:09.512Z,100.00
2023-04-09T01:44:39.613Z,100.00
2023-04-09T01:47:08.892Z,100.00
2023-04-09T01:49:36.321Z,100.00
2023-04-09T01:52:03.645Z,100.00
2023-04-09T01:54:30.966Z,100.00
2023-04-09T01:56:59.037Z,100.00
2023-04-09T01:59:25.799Z,100.00
2023-04-09T02:02:09.463Z,100.00
2023-04-09T02:04:43.824Z,100.00
2023-04-09T02:07:31.210Z,100.00
2023-04-09T02:10:00.858Z,100.00
2023-04-09T02:12:32.004Z,100.00
2023-04-09T02:15:01.389Z,100.00
2023-04-09T02:17:28.711Z,100.00
2023-04-09T02:19:56.612Z,100.00
2023-04-09T02:22:24.208Z,100.00
2023-04-09T02:24:51.521Z,100.00
2023-04-09T02:27:18.971Z,100.00
2023-04-09T02:29:46.329Z,100.00
2023-04-09T02:32:13.455Z,100.00
2023-04-09T02:34:40.589Z,100.00
2023-04-09T02:37:07.446Z,100.00
2023-04-09T02:39:34.804Z,100.00
2023-04-09T02:42:02.303Z,100.00
2023-04-09T02:44:29.684Z,100.00
2023-04-09T02:46:56.604Z,100.00
2023-04-09T02:49:24.324Z,100.00
2023-04-09T02:51:51.683Z,100.00
2023-04-09T02:54:18.775Z,100.00
2023-04-09T02:56:46.408Z,100.00
2023-04-09T02:59:13.351Z,100.00
2023-04-09T03:01:42.086Z,100.00
2023-04-09T03:04:09.161Z,100.00
2023-04-09T03:06:36.351Z,100.00
2023-04-09T03:09:03.362Z,100.00
2023-04-09T03:11:30.541Z,100.00
2023-04-09T03:13:57.977Z,100.00
2023-04-09T03:16:26.335Z,100.00
2023-04-09T03:18:54.047Z,100.00
2023-04-09T03:21:21.532Z,100.00
2023-04-09T03:23:48.865Z,100.00
2023-04-09T03:26:15.865Z,100.00
2023-04-09T03:28:43.246Z,100.00
2023-04-09T03:31:10.373Z,100.00
2023-04-09T03:33:37.600Z,100.00
2023-04-09T03:36:05.307Z,100.00
2023-04-09T03:38:32.327Z,100.00
2023-04-09T03:40:59.448Z,100.00
2023-04-09T03:43:26.426Z,100.00
2023-04-09T03:45:53.952Z,100.00
2023-04-09T03:48:21.900Z,100.00
2023-04-09T03:50:49.053Z,100.00
2023-04-09T03:53:16.568Z,100.00
2023-04-09T03:55:43.629Z,100.00
2023-04-09T03:58:11.366Z,100.00
2023-04-09T04:00:38.385Z,100.00
2023-04-09T04:03:06.123Z,100.00
2023-04-09T04:05:33.714Z,100.00
2023-04-09T04:08:01.466Z,100.00
2023-04-09T04:10:28.471Z,100.00
2023-04-09T04:12:55.317Z,100.00
2023-04-09T04:15:22.566Z,100.00
2023-04-09T04:17:49.364Z,100.00
2023-04-09T04:20:16.847Z,100.00
2023-04-09T04:22:43.807Z,100.00
2023-04-09T04:25:11.257Z,100.00
2023-04-09T04:27:41.948Z,100.00
2023-04-09T04:30:09.564Z,100.00
2023-04-09T04:32:36.799Z,100.00
2023-04-09T04:35:04.436Z,100.00
2023-04-09T04:37:31.810Z,100.00
2023-04-09T04:40:01.697Z,100.00
2023-04-09T04:42:29.483Z,100.00
2023-04-09T04:44:56.509Z,100.00
2023-04-09T04:47:23.702Z,100.00
2023-04-09T04:49:51.141Z,100.00
2023-04-09T04:52:17.978Z,100.00
2023-04-09T04:54:44.915Z,100.00
2023-04-09T04:57:12.002Z,100.00
2023-04-09T04:59:40.679Z,100.00
2023-04-09T05:02:08.721Z,100.00
2023-04-09T05:04:35.552Z,100.00
2023-04-09T05:07:02.917Z,100.00
2023-04-09T05:09:29.848Z,100.00
2023-04-09T05:11:57.121Z,100.00
2023-04-09T05:14:25.248Z,100.00
2023-04-09T05:16:52.295Z,100.00
2023-04-09T05:19:19.634Z,100.00
2023-04-09T05:21:47.527Z,100.00
2023-04-09T05:24:15.208Z,100.00
2023-04-09T05:26:41.790Z,100.00
2023-04-09T05:29:08.835Z,100.00
2023-04-09T05:31:35.794Z,100.00
2023-04-09T05:34:02.586Z,100.00
2023-04-09T05:36:29.630Z,100.00
2023-04-09T05:38:56.490Z,100.00
2023-04-09T05:41:24.009Z,100.00
2023-04-09T05:43:51.215Z,100.00
2023-04-09T05:46:18.717Z,100.00
2023-04-09T05:48:46.209Z,100.00
2023-04-09T05:51:15.766Z,100.00
2023-04-09T05:53:42.913Z,100.00
2023-04-09T05:56:14.614Z,100.00
2023-04-09T05:58:41.648Z,100.00
2023-04-09T06:01:10.285Z,100.00
2023-04-09T06:03:37.662Z,100.00
2023-04-09T06:06:05.451Z,100.00
2023-04-09T06:08:32.330Z,100.00
2023-04-09T06:10:59.656Z,100.00
2023-04-09T06:13:26.930Z,100.00
2023-04-09T06:15:53.702Z,100.00
2023-04-09T06:18:22.047Z,100.00
2023-04-09T06:20:49.206Z,100.00
2023-04-09T06:23:16.389Z,100.00
2023-04-09T06:25:43.334Z,100.00
2023-04-09T06:28:11.584Z,100.00
2023-04-09T06:30:39.007Z,100.00
2023-04-09T06:33:05.779Z,100.00
2023-04-09T06:35:33.791Z,100.00
2023-04-09T06:38:01.438Z,100.00
2023-04-09T06:40:28.477Z,100.00
2023-04-09T06:42:55.410Z,100.00
2023-04-09T06:45:22.872Z,100.00
2023-04-09T06:47:50.272Z,100.00
2023-04-09T06:50:17.142Z,100.00
2023-04-09T06:52:44.346Z,100.00
2023-04-09T06:55:12.293Z,100.00
2023-04-09T06:57:39.544Z,100.00
2023-04-09T07:00:07.897Z,100.00
2023-04-09T07:02:34.898Z,100.00
2023-04-09T07:05:02.072Z,100.00
2023-04-09T07:07:29.046Z,100.00
2023-04-09T07:09:56.363Z,100.00
2023-04-09T07:12:34.638Z,100.00
2023-04-09T07:15:04.148Z,100.00
2023-04-09T07:17:32.334Z,100.00
2023-04-09T07:20:00.419Z,100.00
2023-04-09T07:22:28.942Z,100.00
2023-04-09T07:24:56.534Z,100.00
2023-04-09T07:27:26.299Z,100.00
2023-04-09T07:29:58.516Z,99.42
2023-04-09T07:32:28.383Z,99.00
2023-04-09T07:34:57.340Z,98.57
2023-04-09T07:37:25.519Z,98.52
2023-04-09T07:39:52.613Z,97.05
2023-04-09T07:42:19.797Z,97.07
2023-04-09T07:44:47.586Z,96.24
2023-04-09T07:47:14.835Z,95.98
2023-04-09T07:49:42.056Z,95.56
2023-04-09T07:52:09.273Z,95.52
2023-04-09T07:54:36.354Z,94.83
2023-04-09T07:57:04.096Z,94.22
2023-04-09T07:59:31.698Z,92.98
2023-04-09T08:01:59.596Z,92.27
2023-04-09T08:04:27.978Z,90.63
2023-04-09T08:06:55.437Z,89.74
2023-04-09T08:09:22.968Z,89.21
2023-04-09T08:11:50.913Z,87.30
2023-04-09T08:14:19.040Z,86.04
2023-04-09T08:16:47.640Z,85.83
2023-04-09T08:19:17.160Z,85.71
2023-04-09T08:21:44.779Z,85.76
2023-04-09T08:24:12.216Z,84.03
2023-04-09T08:26:40.059Z,82.56
2023-04-09T08:29:08.608Z,79.42
2023-04-09T08:31:37.404Z,79.16
2023-04-09T08:34:05.234Z,78.17
2023-04-09T08:36:32.696Z,75.21
2023-04-09T08:39:00.784Z,74.49
2023-04-09T08:41:29.566Z,72.00
2023-04-09T08:43:59.561Z,71.49
2023-04-09T08:46:27.846Z,70.62
2023-04-09T08:48:56.019Z,70.41
2023-04-09T08:51:24.921Z,67.98
2023-04-09T08:54:03.049Z,66.04
2023-04-09T08:56:33.184Z,65.05
2023-04-09T08:59:01.341Z,65.97
2023-04-09T09:01:30.150Z,64.03
2023-04-09T09:04:00.938Z,65.80
2023-04-09T09:06:30.159Z,62.94
2023-04-09T09:09:01.145Z,63.81
2023-04-09T09:11:28.488Z,63.83
2023-04-09T09:14:06.645Z,63.23
2023-04-09T09:17:04.096Z,62.65
2023-04-09T09:19:36.779Z,64.39
2023-04-09T09:22:06.230Z,61.67
2023-04-09T09:24:35.681Z,62.57
2023-04-09T09:27:03.215Z,59.28
2023-04-09T09:29:30.200Z,61.10
2023-04-09T09:31:57.449Z,61.63
2023-04-09T09:34:26.183Z,59.86
2023-04-09T09:36:53.420Z,60.57
2023-04-09T09:39:22.439Z,59.73
2023-04-09T09:42:07.628Z,59.69
2023-04-09T09:44:35.842Z,57.96
2023-04-09T09:47:05.247Z,57.04
2023-04-09T09:49:32.601Z,57.72
2023-04-09T09:52:02.952Z,56.82
2023-04-09T09:54:38.616Z,58.12
2023-04-09T09:57:09.316Z,57.43
2023-04-09T09:59:51.020Z,57.89
2023-04-09T10:02:24.621Z,57.08
2023-04-09T10:04:55.180Z,54.12
2023-04-09T10:07:24.049Z,53.94
2023-04-09T10:09:53.133Z,55.26
2023-04-09T10:12:25.469Z,54.30
2023-04-09T10:14:56.330Z,53.53
2023-04-09T10:17:24.104Z,55.21
2023-04-09T10:20:01.592Z,54.30
2023-04-09T10:22:31.467Z,55.80
2023-04-09T10:24:59.830Z,53.30
2023-04-09T10:27:30.011Z,53.75
2023-04-09T10:29:57.344Z,55.03
2023-04-09T10:32:28.489Z,53.49
2023-04-09T10:34:59.195Z,51.02
2023-04-09T10:37:28.640Z,53.88
2023-04-09T10:39:56.960Z,52.55
2023-04-09T10:42:32.769Z,53.67
2023-04-09T10:45:06.536Z,52.75
2023-04-09T10:47:36.166Z,51.44
2023-04-09T10:50:25.432Z,51.79
2023-04-09T10:52:58.439Z,50.94
2023-04-09T10:55:37.060Z,51.01
2023-04-09T10:58:11.369Z,51.25
2023-04-09T11:00:44.792Z,51.12
2023-04-09T11:03:34.285Z,51.15
2023-04-09T11:06:09.173Z,51.21
2023-04-09T11:08:38.326Z,49.86
2023-04-09T11:11:05.948Z,51.26
2023-04-09T11:13:33.237Z,48.69
2023-04-09T11:16:01.543Z,51.04
2023-04-09T11:18:30.750Z,50.20
2023-04-09T11:21:03.070Z,50.56
2023-04-09T11:23:32.161Z,49.44
2023-04-09T11:25:59.913Z,47.81
2023-04-09T11:28:27.593Z,48.81
2023-04-09T11:30:54.505Z,48.64
2023-04-09T11:33:22.454Z,48.29
2023-04-09T11:35:49.397Z,48.99
2023-04-09T11:38:18.877Z,47.43
2023-04-09T11:40:49.051Z,48.02
2023-04-09T11:43:18.241Z,46.14
2023-04-09T11:45:49.038Z,46.91
2023-04-09T11:48:21.842Z,46.86
2023-04-09T11:50:49.696Z,46.83
2023-04-09T11:53:20.868Z,47.41
2023-04-09T11:55:51.300Z,47.12
2023-04-09T11:58:22.240Z,44.19
2023-04-09T12:00:53.973Z,45.18
2023-04-09T12:03:28.471Z,45.87
2023-04-09T12:05:55.799Z,45.10
2023-04-09T12:08:25.038Z,45.45
2023-04-09T12:10:53.851Z,46.74
2023-04-09T12:13:21.463Z,45.85
2023-04-09T12:15:50.288Z,46.11
2023-04-09T12:18:17.193Z,46.21
2023-04-09T12:20:47.481Z,45.13
2023-04-09T12:23:16.061Z,46.00
2023-04-09T12:25:45.054Z,44.83
2023-04-09T12:28:16.030Z,44.69
2023-04-09T12:30:44.024Z,44.48
2023-04-09T12:33:11.602Z,45.09
2023-04-09T12:35:38.810Z,44.51
2023-04-09T12:38:06.299Z,44.08
2023-04-09T12:40:35.008Z,44.10
2023-04-09T12:43:03.042Z,44.62
2023-04-09T12:45:31.285Z,44.74
2023-04-09T12:47:58.617Z,44.18
2023-04-09T12:50:25.921Z,43.51
2023-04-09T12:52:53.310Z,44.46
2023-04-09T12:55:20.164Z,42.37
2023-04-09T12:57:49.856Z,42.01
2023-04-09T13:00:17.156Z,42.22
2023-04-09T13:02:44.225Z,42.13
2023-04-09T13:05:11.705Z,41.54
2023-04-09T13:07:41.449Z,41.03
2023-04-09T13:10:10.653Z,41.22
2023-04-09T13:12:38.540Z,41.10
2023-04-09T13:15:06.821Z,43.07
2023-04-09T13:17:33.948Z,41.97
2023-04-09T13:20:01.785Z,39.40
2023-04-09T13:22:28.822Z,37.92
2023-04-09T13:24:55.850Z,32.70
2023-04-09T13:27:23.325Z,33.57
2023-04-09T13:29:50.256Z,31.96
2023-04-09T13:32:18.517Z,30.31
2023-04-09T13:34:45.400Z,27.69
2023-04-09T13:37:12.532Z,27.85
2023-04-09T13:39:39.412Z,27.79
2023-04-09T13:42:13.583Z,25.12
2023-04-09T13:44:44.852Z,26.32
2023-04-09T13:47:13.665Z,25.65
2023-04-09T13:49:42.233Z,25.26
2023-04-09T13:52:10.687Z,25.18
2023-04-09T13:54:37.824Z,23.53
2023-04-09T13:57:04.978Z,23.69
2023-04-09T13:59:32.206Z,22.55
2023-04-09T14:01:59.443Z,23.83
2023-04-09T14:04:26.982Z,24.70
2023-04-09T14:06:53.934Z,24.74
2023-04-09T14:09:21.182Z,24.47
2023-04-09T14:11:49.360Z,23.95
2023-04-09T14:14:17.883Z,22.93
2023-04-09T14:16:44.586Z,22.14
2023-04-09T14:19:11.812Z,24.30
2023-04-09T14:21:40.008Z,24.71
2023-04-09T14:24:07.702Z,24.69
2023-04-09T14:26:34.376Z,24.67
2023-04-09T14:29:02.880Z,25.43
2023-04-09T14:31:29.722Z,24.57
2023-04-09T14:33:57.465Z,25.10
2023-04-09T14:36:25.106Z,25.31
2023-04-09T14:38:54.716Z,26.70
2023-04-09T14:41:23.568Z,29.49
2023-04-09T14:43:50.426Z,31.15
2023-04-09T14:46:17.798Z,31.83
2023-04-09T14:48:44.800Z,33.38
2023-04-09T14:51:12.289Z,35.36
2023-04-09T14:53:39.291Z,33.34
2023-04-09T14:56:06.910Z,30.06
2023-04-09T14:58:34.058Z,27.79
2023-04-09T15:01:01.787Z,26.70
2023-04-09T15:03:29.067Z,28.10
2023-04-09T15:05:56.934Z,27.24
2023-04-09T15:08:24.010Z,25.91
2023-04-09T15:10:51.347Z,26.21
2023-04-09T15:13:18.516Z,24.36
2023-04-09T15:15:46.715Z,26.09
2023-04-09T15:18:13.710Z,25.88
2023-04-09T15:20:43.373Z,25.31
2023-04-09T15:23:10.979Z,25.30
2023-04-09T15:25:39.063Z,25.62
2023-04-09T15:28:06.462Z,25.68
2023-04-09T15:30:35.278Z,26.21
2023-04-09T15:33:05.561Z,25.26
2023-04-09T15:35:34.488Z,26.43
2023-04-09T15:38:01.578Z,26.51
2023-04-09T15:40:29.190Z,26.71
2023-04-09T15:42:56.293Z,26.80
2023-04-09T15:45:23.333Z,27.86
2023-04-09T15:47:50.267Z,27.93
2023-04-09T15:50:17.496Z,28.29
2023-04-09T15:52:44.662Z,28.94
2023-04-09T15:55:11.785Z,30.74
2023-04-09T15:57:40.176Z,32.17
2023-04-09T16:00:10.973Z,33.32
2023-04-09T16:02:39.122Z,33.58
2023-04-09T16:05:07.710Z,32.88
2023-04-09T16:07:34.833Z,32.75
2023-04-09T16:10:02.504Z,32.17
2023-04-09T16:12:29.414Z,32.51
2023-04-09T16:14:56.537Z,31.71
2023-04-09T16:17:24.003Z,31.70
2023-04-09T16:19:51.110Z,30.84
2023-04-09T16:22:18.185Z,31.47
2023-04-09T16:24:45.336Z,30.81
2023-04-09T16:27:16.959Z,31.67
2023-04-09T16:29:46.300Z,31.89
2023-04-09T16:32:13.395Z,32.91
2023-04-09T16:34:40.885Z,33.22
2023-04-09T16:37:08.192Z,32.67
2023-04-09T16:39:35.451Z,32.50
2023-04-09T16:42:02.708Z,32.25
2023-04-09T16:44:29.614Z,32.85
2023-04-09T16:46:57.727Z,33.48
2023-04-09T16:49:24.760Z,33.73
2023-04-09T16:51:53.201Z,33.65
2023-04-09T16:54:20.760Z,34.24
2023-04-09T16:56:48.772Z,34.36
2023-04-09T16:59:18.483Z,35.26
2023-04-09T17:01:46.064Z,36.28
2023-04-09T17:04:14.020Z,36.95
2023-04-09T17:06:41.136Z,37.13
2023-04-09T17:09:08.381Z,37.87
2023-04-09T17:11:35.646Z,38.46
2023-04-09T17:14:02.647Z,38.05
2023-04-09T17:16:29.771Z,38.40
2023-04-09T17:18:56.918Z,39.02
2023-04-09T17:21:24.235Z,39.89
2023-04-09T17:23:51.455Z,39.93
2023-04-09T17:26:18.973Z,41.19
2023-04-09T17:28:47.222Z,40.92
2023-04-09T17:31:16.054Z,41.10
2023-04-09T17:33:48.025Z,42.21
2023-04-09T17:36:18.463Z,42.50
2023-04-09T17:38:47.333Z,42.96
2023-04-09T17:41:14.640Z,43.38
2023-04-09T17:43:41.791Z,43.39
2023-04-09T17:46:10.486Z,43.53
2023-04-09T17:48:38.949Z,43.66
2023-04-09T17:51:06.843Z,43.89
2023-04-09T17:53:33.565Z,43.99
2023-04-09T17:56:02.962Z,44.43
2023-04-09T17:58:29.962Z,44.42
2023-04-09T18:00:58.828Z,44.92
2023-04-09T18:03:26.198Z,45.68
2023-04-09T18:05:54.328Z,45.34
2023-04-09T18:08:21.942Z,45.90
2023-04-09T18:11:08.854Z,45.81
2023-04-09T18:13:38.555Z,46.26
2023-04-09T18:16:10.912Z,47.17
2023-04-09T18:18:38.042Z,48.21
2023-04-09T18:21:06.899Z,48.04
2023-04-09T18:23:34.932Z,48.87
2023-04-09T18:26:01.857Z,48.10
2023-04-09T18:28:29.316Z,47.96
2023-04-09T18:30:57.836Z,48.61
2023-04-09T18:33:25.763Z,49.58
2023-04-09T18:35:53.043Z,50.46
2023-04-09T18:38:21.064Z,50.90
2023-04-09T18:40:48.476Z,51.06
2023-04-09T18:43:15.508Z,51.58
2023-04-09T18:45:42.889Z,52.28
2023-04-09T18:48:09.826Z,52.29
2023-04-09T18:50:37.518Z,52.98
2023-04-09T18:53:06.758Z,52.93
2023-04-09T18:55:38.346Z,52.85
2023-04-09T18:58:12.411Z,52.73
2023-04-09T19:00:43.627Z,52.95
2023-04-09T19:03:11.160Z,53.05
2023-04-09T19:05:38.760Z,53.39
2023-04-09T19:08:07.109Z,54.12
2023-04-09T19:10:36.146Z,54.05
2023-04-09T19:13:03.396Z,54.32
2023-04-09T19:15:30.528Z,54.50
2023-04-09T19:17:57.682Z,54.66
2023-04-09T19:20:25.101Z,54.77
2023-04-09T19:22:54.693Z,54.75
2023-04-09T19:25:22.769Z,54.78
2023-04-09T19:27:50.623Z,55.26
2023-04-09T19:30:17.942Z,55.20
2023-04-09T19:32:46.075Z,55.34
2023-04-09T19:35:12.996Z,55.94
2023-04-09T19:37:40.376Z,57.00
2023-04-09T19:40:09.557Z,56.88
2023-04-09T19:42:36.724Z,57.26
2023-04-09T19:45:05.666Z,56.87
2023-04-09T19:47:34.820Z,57.55
2023-04-09T19:50:02.576Z,58.07
2023-04-09T19:52:29.714Z,57.40
2023-04-09T19:54:57.130Z,58.57
2023-04-09T19:57:24.484Z,57.14
2023-04-09T19:59:52.411Z,57.24
2023-04-09T20:02:19.460Z,56.96
2023-04-09T20:04:46.458Z,57.65
2023-04-09T20:07:13.125Z,57.17
2023-04-09T20:09:42.459Z,57.63
2023-04-09T20:12:09.969Z,57.02
2023-04-09T20:14:38.169Z,57.75
2023-04-09T20:17:08.973Z,57.32
2023-04-09T20:19:37.806Z,56.84
2023-04-09T20:22:05.502Z,57.12
2023-04-09T20:24:33.780Z,57.47
2023-04-09T20:27:01.668Z,57.48
2023-04-09T20:29:28.801Z,56.99
2023-04-09T20:31:57.986Z,56.97
2023-04-09T20:34:29.196Z,57.92
2023-04-09T20:36:56.934Z,57.62
2023-04-09T20:39:26.670Z,56.88
2023-04-09T20:41:55.414Z,57.00
2023-04-09T20:44:24.457Z,56.64
2023-04-09T20:46:52.016Z,56.67
2023-04-09T20:49:19.844Z,56.87
2023-04-09T20:51:50.076Z,56.32
2023-04-09T20:54:18.067Z,56.52
2023-04-09T20:56:45.810Z,56.10
2023-04-09T20:59:12.793Z,56.76
2023-04-09T21:01:40.440Z,56.54
2023-04-09T21:04:11.482Z,56.50
2023-04-09T21:06:40.499Z,56.29
2023-04-09T21:09:07.139Z,56.21
2023-04-09T21:11:35.001Z,56.96
2023-04-09T21:14:03.318Z,56.84
2023-04-09T21:16:30.974Z,56.77
2023-04-09T21:18:58.557Z,56.84
2023-04-09T21:21:27.470Z,56.80
2023-04-09T21:23:54.989Z,57.18
2023-04-09T21:26:22.207Z,56.98
2023-04-09T21:28:50.707Z,57.08
2023-04-09T21:31:18.061Z,57.07
2023-04-09T21:33:45.411Z,57.35
2023-04-09T21:36:12.252Z,57.33
2023-04-09T21:38:39.786Z,57.42
2023-04-09T21:41:07.193Z,57.51
2023-04-09T21:43:35.589Z,57.17
2023-04-09T21:46:03.091Z,56.95
2023-04-09T21:48:30.752Z,57.48
2023-04-09T21:50:58.979Z,57.70
2023-04-09T21:53:27.216Z,57.69
2023-04-09T21:55:54.496Z,57.74
2023-04-09T21:58:21.535Z,57.35
2023-04-09T22:00:48.456Z,57.47
2023-04-09T22:03:16.716Z,57.30
2023-04-09T22:05:43.683Z,57.99
2023-04-09T22:08:11.802Z,58.26
2023-04-09T22:10:39.080Z,58.52
2023-04-09T22:13:06.666Z,58.62
2023-04-09T22:15:34.014Z,59.14
2023-04-09T22:18:00.907Z,59.14
2023-04-09T22:20:27.728Z,59.12
2023-04-09T22:22:54.823Z,58.95
2023-04-09T22:25:22.242Z,59.24
2023-04-09T22:27:53.084Z,60.06
2023-04-09T22:30:22.014Z,60.64
2023-04-09T22:32:49.152Z,60.67
2023-04-09T22:35:18.285Z,60.55
2023-04-09T22:37:46.928Z,60.88
2023-04-09T22:40:16.421Z,61.22
2023-04-09T22:42:46.499Z,61.09
2023-04-09T22:45:14.233Z,61.51
2023-04-09T22:47:41.485Z,61.13
2023-04-09T22:50:09.647Z,61.47
2023-04-09T22:52:38.309Z,61.52
2023-04-09T22:55:06.503Z,61.41
2023-04-09T22:57:34.394Z,61.88
2023-04-09T23:00:01.642Z,61.81
2023-04-09T23:02:29.493Z,61.55
2023-04-09T23:04:56.659Z,61.75
2023-04-09T23:07:24.090Z,61.66
2023-04-09T23:09:54.782Z,61.20
2023-04-09T23:12:21.885Z,61.49
2023-04-09T23:14:49.536Z,62.31
2023-04-09T23:17:17.260Z,62.26
2023-04-09T23:19:45.293Z,62.44
2023-04-09T23:22:12.638Z,62.27
2023-04-09T23:24:39.538Z,62.47
2023-04-09T23:27:06.706Z,62.25
2023-04-09T23:29:34.145Z,62.77
2023-04-09T23:32:01.375Z,63.79
2023-04-09T23:34:28.184Z,63.58
2023-04-09T23:36:54.739Z,63.12
2023-04-09T23:39:22.238Z,63.66
2023-04-09T23:41:49.354Z,64.34
2023-04-09T23:44:16.421Z,63.69
2023-04-09T23:46:43.461Z,63.71
2023-04-09T23:49:10.851Z,63.07
2023-04-09T23:51:37.791Z,63.54
2023-04-09T23:54:04.381Z,63.22
2023-04-09T23:56:31.344Z,62.47
2023-04-09T23:58:58.090Z,62.51
